sensor_id;sensor_type;location;lat;lon;timestamp;P1;durP1;ratioP1;P2;durP2;ratioP2
4674;SDS011;2351;50.812;12.872;2022-12-07T00:01:38;16.13;;;6.43;;
4674;SDS011;2351;50.812;12.872;2022-12-07T00:04:11;12.03;;;6.47;;
4674;SDS011;2351;50.812;12.872;2022-12-07T00:06:45;15.77;;;6.17;;
4674;SDS011;2351;50.812;12.872;2022-12-07T00:09:21;14.90;;;7.13;;
4674;SDS011;2351;50.812;12.872;2022-12-07T00:11:53;19.70;;;8.23;;
4674;SDS011;2351;50.812;12.872;2022-12-07T00:14:25;17.43;;;7.77;;
4674;SDS011;2351;50.812;12.872;2022-12-07T00:16:58;21.40;;;8.20;;
4674;SDS011;2351;50.812;12.872;2022-12-07T00:19:29;18.80;;;8.60;;
4674;SDS011;2351;50.812;12.872;2022-12-07T00:22:01;18.03;;;7.30;;
4674;SDS011;2351;50.812;12.872;2022-12-07T00:24:33;20.13;;;8.73;;
4674;SDS011;2351;50.812;12.872;2022-12-07T00:27:04;18.90;;;9.20;;
4674;SDS011;2351;50.812;12.872;2022-12-07T00:29:36;18.47;;;7.63;;
4674;SDS011;2351;50.812;12.872;2022-12-07T00:32:09;26.33;;;9.10;;
4674;SDS011;2351;50.812;12.872;2022-12-07T00:34:41;18.40;;;8.30;;
4674;SDS011;2351;50.812;12.872;2022-12-07T00:37:13;16.60;;;7.83;;
4674;SDS011;2351;50.812;12.872;2022-12-07T00:39:45;18.37;;;8.23;;
4674;SDS011;2351;50.812;12.872;2022-12-07T00:42:17;25.67;;;9.30;;
4674;SDS011;2351;50.812;12.872;2022-12-07T00:44:49;23.50;;;9.30;;
4674;SDS011;2351;50.812;12.872;2022-12-07T00:47:22;20.67;;;9.13;;
4674;SDS011;2351;50.812;12.872;2022-12-07T00:49:54;20.70;;;7.60;;
4674;SDS011;2351;50.812;12.872;2022-12-07T00:52:25;18.80;;;8.90;;
4674;SDS011;2351;50.812;12.872;2022-12-07T00:54:57;25.27;;;7.17;;
4674;SDS011;2351;50.812;12.872;2022-12-07T00:57:29;24.60;;;9.20;;
4674;SDS011;2351;50.812;12.872;2022-12-07T01:00:02;22.33;;;10.10;;
4674;SDS011;2351;50.812;12.872;2022-12-07T01:02:35;17.20;;;9.00;;
4674;SDS011;2351;50.812;12.872;2022-12-07T01:05:07;22.00;;;9.37;;
4674;SDS011;2351;50.812;12.872;2022-12-07T01:07:39;20.83;;;9.00;;
4674;SDS011;2351;50.812;12.872;2022-12-07T01:10:11;17.40;;;8.23;;
4674;SDS011;2351;50.812;12.872;2022-12-07T01:12:43;20.53;;;10.17;;
4674;SDS011;2351;50.812;12.872;2022-12-07T01:15:14;16.20;;;8.03;;
4674;SDS011;2351;50.812;12.872;2022-12-07T01:17:48;18.23;;;8.37;;
4674;SDS011;2351;50.812;12.872;2022-12-07T01:20:19;17.43;;;9.57;;
4674;SDS011;2351;50.812;12.872;2022-12-07T01:22:51;16.80;;;8.73;;
4674;SDS011;2351;50.812;12.872;2022-12-07T01:25:23;16.33;;;8.43;;
4674;SDS011;2351;50.812;12.872;2022-12-07T01:27:54;19.70;;;9.00;;
4674;SDS011;2351;50.812;12.872;2022-12-07T01:30:26;19.13;;;8.57;;
4674;SDS011;2351;50.812;12.872;2022-12-07T01:32:59;23.13;;;10.37;;
4674;SDS011;2351;50.812;12.872;2022-12-07T01:35:33;19.00;;;6.80;;
4674;SDS011;2351;50.812;12.872;2022-12-07T01:38:05;16.87;;;8.53;;
4674;SDS011;2351;50.812;12.872;2022-12-07T01:40:36;21.57;;;7.87;;
4674;SDS011;2351;50.812;12.872;2022-12-07T01:43:09;18.60;;;9.10;;
4674;SDS011;2351;50.812;12.872;2022-12-07T01:45:47;27.30;;;10.60;;
4674;SDS011;2351;50.812;12.872;2022-12-07T01:48:22;24.30;;;9.80;;
4674;SDS011;2351;50.812;12.872;2022-12-07T01:50:57;17.07;;;7.90;;
4674;SDS011;2351;50.812;12.872;2022-12-07T01:53:32;24.07;;;8.43;;
4674;SDS011;2351;50.812;12.872;2022-12-07T01:56:07;21.47;;;9.63;;
4674;SDS011;2351;50.812;12.872;2022-12-07T01:58:42;17.10;;;8.43;;
4674;SDS011;2351;50.812;12.872;2022-12-07T02:01:14;23.03;;;8.60;;
4674;SDS011;2351;50.812;12.872;2022-12-07T02:03:47;19.17;;;8.80;;
4674;SDS011;2351;50.812;12.872;2022-12-07T02:06:20;14.87;;;7.77;;
4674;SDS011;2351;50.812;12.872;2022-12-07T02:08:55;27.87;;;9.30;;
4674;SDS011;2351;50.812;12.872;2022-12-07T02:11:27;16.93;;;8.00;;
4674;SDS011;2351;50.812;12.872;2022-12-07T02:13:59;19.50;;;8.40;;
4674;SDS011;2351;50.812;12.872;2022-12-07T02:16:32;14.07;;;7.30;;
4674;SDS011;2351;50.812;12.872;2022-12-07T02:22:33;16.47;;;7.50;;
4674;SDS011;2351;50.812;12.872;2022-12-07T02:25:24;11.33;;;5.63;;
4674;SDS011;2351;50.812;12.872;2022-12-07T02:28:05;11.53;;;6.33;;
4674;SDS011;2351;50.812;12.872;2022-12-07T02:30:43;15.33;;;8.23;;
4674;SDS011;2351;50.812;12.872;2022-12-07T02:33:19;15.60;;;6.87;;
4674;SDS011;2351;50.812;12.872;2022-12-07T02:35:59;16.83;;;6.63;;
4674;SDS011;2351;50.812;12.872;2022-12-07T02:38:37;11.87;;;6.30;;
4674;SDS011;2351;50.812;12.872;2022-12-07T02:41:16;12.30;;;6.20;;
4674;SDS011;2351;50.812;12.872;2022-12-07T02:43:53;16.10;;;7.77;;
4674;SDS011;2351;50.812;12.872;2022-12-07T02:46:31;14.43;;;6.30;;
4674;SDS011;2351;50.812;12.872;2022-12-07T02:49:07;14.53;;;6.83;;
4674;SDS011;2351;50.812;12.872;2022-12-07T02:51:41;13.77;;;6.40;;
4674;SDS011;2351;50.812;12.872;2022-12-07T02:54:17;10.10;;;5.43;;
4674;SDS011;2351;50.812;12.872;2022-12-07T02:56:51;10.07;;;5.03;;
4674;SDS011;2351;50.812;12.872;2022-12-07T02:59:32;12.77;;;5.20;;
4674;SDS011;2351;50.812;12.872;2022-12-07T03:02:20;9.47;;;4.90;;
4674;SDS011;2351;50.812;12.872;2022-12-07T03:05:00;12.17;;;5.60;;
4674;SDS011;2351;50.812;12.872;2022-12-07T03:07:44;11.90;;;5.20;;
4674;SDS011;2351;50.812;12.872;2022-12-07T03:10:24;9.60;;;4.93;;
4674;SDS011;2351;50.812;12.872;2022-12-07T03:13:05;18.73;;;6.60;;
4674;SDS011;2351;50.812;12.872;2022-12-07T03:15:45;5.60;;;3.87;;
4674;SDS011;2351;50.812;12.872;2022-12-07T03:18:22;19.77;;;4.90;;
4674;SDS011;2351;50.812;12.872;2022-12-07T03:20:57;7.67;;;4.83;;
4674;SDS011;2351;50.812;12.872;2022-12-07T03:23:35;6.33;;;3.50;;
4674;SDS011;2351;50.812;12.872;2022-12-07T03:26:10;9.20;;;4.30;;
4674;SDS011;2351;50.812;12.872;2022-12-07T03:28:46;11.33;;;5.10;;
4674;SDS011;2351;50.812;12.872;2022-12-07T03:31:23;6.30;;;4.10;;
4674;SDS011;2351;50.812;12.872;2022-12-07T03:34:03;11.07;;;5.50;;
4674;SDS011;2351;50.812;12.872;2022-12-07T03:36:42;11.00;;;4.33;;
4674;SDS011;2351;50.812;12.872;2022-12-07T03:39:20;5.73;;;3.90;;
4674;SDS011;2351;50.812;12.872;2022-12-07T03:41:57;12.43;;;4.47;;
4674;SDS011;2351;50.812;12.872;2022-12-07T03:44:32;10.60;;;4.97;;
4674;SDS011;2351;50.812;12.872;2022-12-07T03:47:06;5.57;;;3.83;;
4674;SDS011;2351;50.812;12.872;2022-12-07T03:49:50;5.63;;;3.47;;
4674;SDS011;2351;50.812;12.872;2022-12-07T03:52:26;10.30;;;4.70;;
4674;SDS011;2351;50.812;12.872;2022-12-07T03:55:04;10.43;;;4.03;;
4674;SDS011;2351;50.812;12.872;2022-12-07T03:57:39;9.23;;;4.60;;
4674;SDS011;2351;50.812;12.872;2022-12-07T04:00:14;26.73;;;5.60;;
4674;SDS011;2351;50.812;12.872;2022-12-07T04:02:46;7.70;;;4.67;;
4674;SDS011;2351;50.812;12.872;2022-12-07T04:05:19;8.23;;;3.70;;
4674;SDS011;2351;50.812;12.872;2022-12-07T04:07:51;8.73;;;4.53;;
4674;SDS011;2351;50.812;12.872;2022-12-07T04:10:23;7.77;;;4.10;;
4674;SDS011;2351;50.812;12.872;2022-12-07T04:12:54;8.30;;;4.10;;
4674;SDS011;2351;50.812;12.872;2022-12-07T04:15:26;7.57;;;4.07;;
4674;SDS011;2351;50.812;12.872;2022-12-07T04:17:58;8.50;;;4.40;;
4674;SDS011;2351;50.812;12.872;2022-12-07T04:20:31;12.77;;;4.30;;
4674;SDS011;2351;50.812;12.872;2022-12-07T04:23:03;8.87;;;3.30;;
4674;SDS011;2351;50.812;12.872;2022-12-07T04:25:34;5.70;;;3.10;;
4674;SDS011;2351;50.812;12.872;2022-12-07T04:28:06;7.33;;;4.33;;
4674;SDS011;2351;50.812;12.872;2022-12-07T04:30:38;6.83;;;3.13;;
4674;SDS011;2351;50.812;12.872;2022-12-07T04:33:09;6.73;;;3.00;;
4674;SDS011;2351;50.812;12.872;2022-12-07T04:35:43;3.93;;;2.77;;
4674;SDS011;2351;50.812;12.872;2022-12-07T04:38:15;7.03;;;3.90;;
4674;SDS011;2351;50.812;12.872;2022-12-07T04:40:46;7.23;;;3.77;;
4674;SDS011;2351;50.812;12.872;2022-12-07T04:43:18;5.90;;;2.97;;
4674;SDS011;2351;50.812;12.872;2022-12-07T04:45:50;6.23;;;4.30;;
4674;SDS011;2351;50.812;12.872;2022-12-07T04:48:21;5.47;;;3.23;;
4674;SDS011;2351;50.812;12.872;2022-12-07T04:50:54;6.60;;;3.00;;
4674;SDS011;2351;50.812;12.872;2022-12-07T04:53:26;5.33;;;2.83;;
4674;SDS011;2351;50.812;12.872;2022-12-07T04:55:58;16.03;;;3.50;;
4674;SDS011;2351;50.812;12.872;2022-12-07T04:58:31;7.00;;;3.60;;
4674;SDS011;2351;50.812;12.872;2022-12-07T05:01:02;14.20;;;2.80;;
4674;SDS011;2351;50.812;12.872;2022-12-07T05:03:35;10.67;;;2.40;;
4674;SDS011;2351;50.812;12.872;2022-12-07T05:06:09;4.13;;;2.77;;
4674;SDS011;2351;50.812;12.872;2022-12-07T05:08:41;6.63;;;2.63;;
4674;SDS011;2351;50.812;12.872;2022-12-07T05:11:14;5.80;;;2.63;;
4674;SDS011;2351;50.812;12.872;2022-12-07T05:14:00;6.47;;;3.37;;
4674;SDS011;2351;50.812;12.872;2022-12-07T05:16:32;4.93;;;2.83;;
4674;SDS011;2351;50.812;12.872;2022-12-07T05:19:03;7.90;;;3.60;;
4674;SDS011;2351;50.812;12.872;2022-12-07T05:21:37;4.80;;;3.27;;
4674;SDS011;2351;50.812;12.872;2022-12-07T05:24:10;6.53;;;3.60;;
4674;SDS011;2351;50.812;12.872;2022-12-07T05:26:43;7.23;;;3.73;;
4674;SDS011;2351;50.812;12.872;2022-12-07T05:29:16;7.23;;;3.70;;
4674;SDS011;2351;50.812;12.872;2022-12-07T05:31:48;7.50;;;3.20;;
4674;SDS011;2351;50.812;12.872;2022-12-07T05:34:19;4.90;;;3.50;;
4674;SDS011;2351;50.812;12.872;2022-12-07T05:36:53;6.83;;;3.30;;
4674;SDS011;2351;50.812;12.872;2022-12-07T05:39:24;9.90;;;3.90;;
4674;SDS011;2351;50.812;12.872;2022-12-07T05:41:56;4.80;;;3.37;;
4674;SDS011;2351;50.812;12.872;2022-12-07T05:44:43;5.67;;;3.60;;
4674;SDS011;2351;50.812;12.872;2022-12-07T05:47:16;6.60;;;3.00;;
4674;SDS011;2351;50.812;12.872;2022-12-07T05:49:48;6.00;;;2.93;;
4674;SDS011;2351;50.812;12.872;2022-12-07T05:52:21;12.73;;;3.53;;
4674;SDS011;2351;50.812;12.872;2022-12-07T05:54:53;5.83;;;3.80;;
4674;SDS011;2351;50.812;12.872;2022-12-07T05:57:25;8.50;;;3.77;;
4674;SDS011;2351;50.812;12.872;2022-12-07T05:59:57;6.60;;;3.80;;
4674;SDS011;2351;50.812;12.872;2022-12-07T06:02:27;6.50;;;4.17;;
4674;SDS011;2351;50.812;12.872;2022-12-07T06:04:59;9.17;;;5.57;;
4674;SDS011;2351;50.812;12.872;2022-12-07T06:07:32;8.30;;;4.70;;
4674;SDS011;2351;50.812;12.872;2022-12-07T06:10:04;8.00;;;4.50;;
4674;SDS011;2351;50.812;12.872;2022-12-07T06:12:37;10.80;;;5.27;;
4674;SDS011;2351;50.812;12.872;2022-12-07T06:15:09;13.10;;;5.37;;
4674;SDS011;2351;50.812;12.872;2022-12-07T06:17:43;11.27;;;5.77;;
4674;SDS011;2351;50.812;12.872;2022-12-07T06:20:14;7.97;;;4.93;;
4674;SDS011;2351;50.812;12.872;2022-12-07T06:22:48;9.93;;;5.40;;
4674;SDS011;2351;50.812;12.872;2022-12-07T06:25:19;10.70;;;5.20;;
4674;SDS011;2351;50.812;12.872;2022-12-07T06:27:51;8.60;;;5.00;;
4674;SDS011;2351;50.812;12.872;2022-12-07T06:30:22;14.53;;;6.47;;
4674;SDS011;2351;50.812;12.872;2022-12-07T06:32:54;9.83;;;5.70;;
4674;SDS011;2351;50.812;12.872;2022-12-07T06:35:26;12.30;;;5.70;;
4674;SDS011;2351;50.812;12.872;2022-12-07T06:37:59;9.13;;;6.20;;
4674;SDS011;2351;50.812;12.872;2022-12-07T06:40:31;18.37;;;6.07;;
4674;SDS011;2351;50.812;12.872;2022-12-07T06:43:02;10.00;;;5.70;;
4674;SDS011;2351;50.812;12.872;2022-12-07T06:45:34;13.20;;;5.80;;
4674;SDS011;2351;50.812;12.872;2022-12-07T06:48:06;13.07;;;5.97;;
4674;SDS011;2351;50.812;12.872;2022-12-07T06:50:38;11.80;;;6.63;;
4674;SDS011;2351;50.812;12.872;2022-12-07T06:53:11;11.60;;;6.20;;
4674;SDS011;2351;50.812;12.872;2022-12-07T06:55:43;14.33;;;6.00;;
4674;SDS011;2351;50.812;12.872;2022-12-07T06:58:14;17.77;;;7.03;;
4674;SDS011;2351;50.812;12.872;2022-12-07T07:00:47;22.60;;;7.40;;
4674;SDS011;2351;50.812;12.872;2022-12-07T07:03:19;36.33;;;10.87;;
4674;SDS011;2351;50.812;12.872;2022-12-07T07:05:51;14.90;;;8.00;;
4674;SDS011;2351;50.812;12.872;2022-12-07T07:08:24;20.80;;;9.77;;
4674;SDS011;2351;50.812;12.872;2022-12-07T07:10:56;15.13;;;7.30;;
4674;SDS011;2351;50.812;12.872;2022-12-07T07:13:27;13.70;;;8.27;;
4674;SDS011;2351;50.812;12.872;2022-12-07T07:15:59;17.40;;;7.33;;
4674;SDS011;2351;50.812;12.872;2022-12-07T07:18:37;15.50;;;7.20;;
4674;SDS011;2351;50.812;12.872;2022-12-07T07:21:09;18.03;;;7.13;;
4674;SDS011;2351;50.812;12.872;2022-12-07T07:23:42;10.87;;;6.53;;
4674;SDS011;2351;50.812;12.872;2022-12-07T07:26:14;14.80;;;5.57;;
4674;SDS011;2351;50.812;12.872;2022-12-07T07:28:46;18.70;;;7.10;;
4674;SDS011;2351;50.812;12.872;2022-12-07T07:31:17;16.30;;;7.03;;
4674;SDS011;2351;50.812;12.872;2022-12-07T07:33:49;21.57;;;7.33;;
4674;SDS011;2351;50.812;12.872;2022-12-07T07:36:21;9.87;;;6.13;;
4674;SDS011;2351;50.812;12.872;2022-12-07T07:38:54;16.27;;;7.10;;
4674;SDS011;2351;50.812;12.872;2022-12-07T07:41:26;11.73;;;6.90;;
4674;SDS011;2351;50.812;12.872;2022-12-07T07:43:57;12.10;;;7.03;;
4674;SDS011;2351;50.812;12.872;2022-12-07T07:46:29;11.17;;;5.63;;
4674;SDS011;2351;50.812;12.872;2022-12-07T07:49:03;14.70;;;7.13;;
4674;SDS011;2351;50.812;12.872;2022-12-07T07:51:34;13.47;;;6.20;;
4674;SDS011;2351;50.812;12.872;2022-12-07T07:54:07;12.47;;;6.10;;
4674;SDS011;2351;50.812;12.872;2022-12-07T07:56:39;10.17;;;5.60;;
4674;SDS011;2351;50.812;12.872;2022-12-07T07:59:11;11.80;;;6.63;;
4674;SDS011;2351;50.812;12.872;2022-12-07T08:01:42;13.90;;;6.93;;
4674;SDS011;2351;50.812;12.872;2022-12-07T08:04:14;18.67;;;6.93;;
4674;SDS011;2351;50.812;12.872;2022-12-07T08:06:46;11.97;;;6.23;;
4674;SDS011;2351;50.812;12.872;2022-12-07T08:09:19;12.33;;;5.97;;
4674;SDS011;2351;50.812;12.872;2022-12-07T08:11:51;15.60;;;6.90;;
4674;SDS011;2351;50.812;12.872;2022-12-07T08:14:23;14.97;;;6.73;;
4674;SDS011;2351;50.812;12.872;2022-12-07T08:16:55;12.27;;;6.43;;
4674;SDS011;2351;50.812;12.872;2022-12-07T08:19:27;12.83;;;7.10;;
4674;SDS011;2351;50.812;12.872;2022-12-07T08:21:59;13.13;;;7.90;;
4674;SDS011;2351;50.812;12.872;2022-12-07T08:24:34;9.23;;;6.00;;
4674;SDS011;2351;50.812;12.872;2022-12-07T08:27:05;14.60;;;6.57;;
4674;SDS011;2351;50.812;12.872;2022-12-07T08:29:37;12.97;;;6.13;;
4674;SDS011;2351;50.812;12.872;2022-12-07T08:32:09;15.07;;;7.80;;
4674;SDS011;2351;50.812;12.872;2022-12-07T08:34:41;14.53;;;7.10;;
4674;SDS011;2351;50.812;12.872;2022-12-07T08:37:12;14.27;;;7.37;;
4674;SDS011;2351;50.812;12.872;2022-12-07T08:39:45;15.67;;;7.80;;
4674;SDS011;2351;50.812;12.872;2022-12-07T08:42:17;11.73;;;6.87;;
4674;SDS011;2351;50.812;12.872;2022-12-07T08:44:49;13.87;;;7.50;;
4674;SDS011;2351;50.812;12.872;2022-12-07T08:47:20;14.23;;;6.93;;
4674;SDS011;2351;50.812;12.872;2022-12-07T08:49:52;15.97;;;6.60;;
4674;SDS011;2351;50.812;12.872;2022-12-07T08:52:25;17.90;;;7.60;;
4674;SDS011;2351;50.812;12.872;2022-12-07T08:54:58;14.83;;;6.10;;
4674;SDS011;2351;50.812;12.872;2022-12-07T08:57:31;12.60;;;7.10;;
4674;SDS011;2351;50.812;12.872;2022-12-07T09:00:07;11.70;;;6.40;;
4674;SDS011;2351;50.812;12.872;2022-12-07T09:02:40;9.80;;;5.97;;
4674;SDS011;2351;50.812;12.872;2022-12-07T09:05:11;13.50;;;6.30;;
4674;SDS011;2351;50.812;12.872;2022-12-07T09:07:45;9.53;;;5.70;;
4674;SDS011;2351;50.812;12.872;2022-12-07T09:10:23;10.57;;;5.80;;
4674;SDS011;2351;50.812;12.872;2022-12-07T09:12:55;12.77;;;5.37;;
4674;SDS011;2351;50.812;12.872;2022-12-07T09:15:30;11.40;;;6.40;;
4674;SDS011;2351;50.812;12.872;2022-12-07T09:18:02;13.47;;;6.73;;
4674;SDS011;2351;50.812;12.872;2022-12-07T09:20:34;20.57;;;6.90;;
4674;SDS011;2351;50.812;12.872;2022-12-07T09:23:06;13.60;;;7.17;;
4674;SDS011;2351;50.812;12.872;2022-12-07T09:25:39;12.90;;;5.60;;
4674;SDS011;2351;50.812;12.872;2022-12-07T09:28:10;11.40;;;6.50;;
4674;SDS011;2351;50.812;12.872;2022-12-07T09:30:44;13.77;;;6.50;;
4674;SDS011;2351;50.812;12.872;2022-12-07T09:33:17;11.27;;;6.17;;
4674;SDS011;2351;50.812;12.872;2022-12-07T09:35:49;9.43;;;5.70;;
4674;SDS011;2351;50.812;12.872;2022-12-07T09:38:22;13.97;;;5.67;;
4674;SDS011;2351;50.812;12.872;2022-12-07T09:40:55;11.87;;;5.77;;
4674;SDS011;2351;50.812;12.872;2022-12-07T09:43:27;9.27;;;6.00;;
4674;SDS011;2351;50.812;12.872;2022-12-07T09:45:59;10.03;;;5.77;;
4674;SDS011;2351;50.812;12.872;2022-12-07T09:48:32;8.43;;;4.53;;
4674;SDS011;2351;50.812;12.872;2022-12-07T09:51:11;7.63;;;4.67;;
4674;SDS011;2351;50.812;12.872;2022-12-07T09:53:45;12.80;;;6.10;;
4674;SDS011;2351;50.812;12.872;2022-12-07T09:56:20;7.53;;;4.57;;
4674;SDS011;2351;50.812;12.872;2022-12-07T09:58:54;6.93;;;4.60;;
4674;SDS011;2351;50.812;12.872;2022-12-07T10:01:31;10.63;;;4.33;;
4674;SDS011;2351;50.812;12.872;2022-12-07T10:04:08;10.07;;;4.97;;
4674;SDS011;2351;50.812;12.872;2022-12-07T10:06:44;14.07;;;4.97;;
4674;SDS011;2351;50.812;12.872;2022-12-07T10:09:18;13.70;;;6.53;;
4674;SDS011;2351;50.812;12.872;2022-12-07T10:12:00;9.67;;;5.40;;
4674;SDS011;2351;50.812;12.872;2022-12-07T10:14:34;11.33;;;5.67;;
4674;SDS011;2351;50.812;12.872;2022-12-07T10:20:08;7.93;;;5.90;;
4674;SDS011;2351;50.812;12.872;2022-12-07T10:22:59;14.40;;;4.93;;
4674;SDS011;2351;50.812;12.872;2022-12-07T10:25:32;7.03;;;4.40;;
4674;SDS011;2351;50.812;12.872;2022-12-07T10:28:12;12.13;;;5.83;;
4674;SDS011;2351;50.812;12.872;2022-12-07T10:30:46;10.23;;;4.73;;
4674;SDS011;2351;50.812;12.872;2022-12-07T10:33:32;8.50;;;5.17;;
4674;SDS011;2351;50.812;12.872;2022-12-07T10:36:16;10.33;;;5.77;;
4674;SDS011;2351;50.812;12.872;2022-12-07T10:38:50;11.03;;;5.73;;
4674;SDS011;2351;50.812;12.872;2022-12-07T10:41:24;8.47;;;4.93;;
4674;SDS011;2351;50.812;12.872;2022-12-07T10:43:57;12.90;;;4.47;;
4674;SDS011;2351;50.812;12.872;2022-12-07T10:49:38;8.10;;;4.23;;
4674;SDS011;2351;50.812;12.872;2022-12-07T10:52:32;8.17;;;4.13;;
4674;SDS011;2351;50.812;12.872;2022-12-07T10:55:19;9.50;;;4.33;;
4674;SDS011;2351;50.812;12.872;2022-12-07T10:58:00;7.30;;;4.80;;
4674;SDS011;2351;50.812;12.872;2022-12-07T11:00:52;8.80;;;4.40;;
4674;SDS011;2351;50.812;12.872;2022-12-07T11:03:36;11.10;;;4.37;;
4674;SDS011;2351;50.812;12.872;2022-12-07T11:06:20;6.20;;;3.13;;
4674;SDS011;2351;50.812;12.872;2022-12-07T11:09:06;4.67;;;3.30;;
4674;SDS011;2351;50.812;12.872;2022-12-07T11:11:56;5.13;;;3.60;;
4674;SDS011;2351;50.812;12.872;2022-12-07T11:14:40;6.27;;;3.40;;
4674;SDS011;2351;50.812;12.872;2022-12-07T11:17:22;5.53;;;4.20;;
4674;SDS011;2351;50.812;12.872;2022-12-07T11:20:11;5.70;;;3.07;;
4674;SDS011;2351;50.812;12.872;2022-12-07T11:22:55;9.10;;;3.47;;
4674;SDS011;2351;50.812;12.872;2022-12-07T11:25:34;11.10;;;3.80;;
4674;SDS011;2351;50.812;12.872;2022-12-07T11:28:18;6.03;;;3.80;;
4674;SDS011;2351;50.812;12.872;2022-12-07T11:31:02;4.33;;;3.10;;
4674;SDS011;2351;50.812;12.872;2022-12-07T11:33:45;6.10;;;3.30;;
4674;SDS011;2351;50.812;12.872;2022-12-07T11:36:25;5.03;;;3.53;;
4674;SDS011;2351;50.812;12.872;2022-12-07T11:39:07;5.90;;;2.97;;
4674;SDS011;2351;50.812;12.872;2022-12-07T11:41:48;5.90;;;3.27;;
4674;SDS011;2351;50.812;12.872;2022-12-07T11:44:26;2.37;;;2.10;;
4674;SDS011;2351;50.812;12.872;2022-12-07T11:47:06;4.33;;;2.53;;
4674;SDS011;2351;50.812;12.872;2022-12-07T11:49:44;8.60;;;3.50;;
4674;SDS011;2351;50.812;12.872;2022-12-07T11:52:25;9.10;;;2.90;;
4674;SDS011;2351;50.812;12.872;2022-12-07T11:55:02;4.83;;;2.57;;
4674;SDS011;2351;50.812;12.872;2022-12-07T11:57:45;7.63;;;3.07;;
4674;SDS011;2351;50.812;12.872;2022-12-07T12:00:24;5.07;;;3.13;;
4674;SDS011;2351;50.812;12.872;2022-12-07T12:02:57;5.37;;;2.90;;
4674;SDS011;2351;50.812;12.872;2022-12-07T12:05:34;5.20;;;2.40;;
4674;SDS011;2351;50.812;12.872;2022-12-07T12:08:11;4.73;;;2.67;;
4674;SDS011;2351;50.812;12.872;2022-12-07T12:10:51;8.23;;;3.40;;
4674;SDS011;2351;50.812;12.872;2022-12-07T12:13:49;6.23;;;2.70;;
4674;SDS011;2351;50.812;12.872;2022-12-07T12:19:32;6.93;;;3.10;;
4674;SDS011;2351;50.812;12.872;2022-12-07T12:22:10;4.70;;;3.20;;
4674;SDS011;2351;50.812;12.872;2022-12-07T12:24:46;5.00;;;2.50;;
4674;SDS011;2351;50.812;12.872;2022-12-07T12:27:23;2.73;;;1.33;;
4674;SDS011;2351;50.812;12.872;2022-12-07T12:30:00;4.47;;;2.57;;
4674;SDS011;2351;50.812;12.872;2022-12-07T12:32:36;3.77;;;2.00;;
4674;SDS011;2351;50.812;12.872;2022-12-07T12:35:20;6.50;;;2.07;;
4674;SDS011;2351;50.812;12.872;2022-12-07T12:40:58;3.60;;;2.47;;
4674;SDS011;2351;50.812;12.872;2022-12-07T12:43:42;3.20;;;2.10;;
4674;SDS011;2351;50.812;12.872;2022-12-07T12:49:32;7.93;;;2.27;;
4674;SDS011;2351;50.812;12.872;2022-12-07T12:58:36;4.60;;;1.90;;
4674;SDS011;2351;50.812;12.872;2022-12-07T13:01:36;8.70;;;2.03;;
4674;SDS011;2351;50.812;12.872;2022-12-07T13:04:16;2.60;;;1.67;;
4674;SDS011;2351;50.812;12.872;2022-12-07T13:06:53;9.10;;;2.00;;
4674;SDS011;2351;50.812;12.872;2022-12-07T13:09:25;2.60;;;1.80;;
4674;SDS011;2351;50.812;12.872;2022-12-07T13:12:00;5.47;;;2.77;;
4674;SDS011;2351;50.812;12.872;2022-12-07T13:20:48;4.03;;;1.77;;
4674;SDS011;2351;50.812;12.872;2022-12-07T13:23:22;2.57;;;1.97;;
4674;SDS011;2351;50.812;12.872;2022-12-07T13:25:59;4.87;;;2.10;;
4674;SDS011;2351;50.812;12.872;2022-12-07T13:28:36;4.37;;;2.00;;
4674;SDS011;2351;50.812;12.872;2022-12-07T13:31:14;3.47;;;2.33;;
4674;SDS011;2351;50.812;12.872;2022-12-07T13:33:52;2.63;;;1.60;;
4674;SDS011;2351;50.812;12.872;2022-12-07T13:36:24;4.43;;;2.20;;
4674;SDS011;2351;50.812;12.872;2022-12-07T13:39:00;6.27;;;1.63;;
4674;SDS011;2351;50.812;12.872;2022-12-07T13:41:42;3.40;;;2.03;;
4674;SDS011;2351;50.812;12.872;2022-12-07T13:44:14;4.00;;;2.03;;
4674;SDS011;2351;50.812;12.872;2022-12-07T13:46:49;7.07;;;1.80;;
4674;SDS011;2351;50.812;12.872;2022-12-07T13:49:29;3.70;;;1.80;;
4674;SDS011;2351;50.812;12.872;2022-12-07T13:52:11;5.17;;;2.43;;
4674;SDS011;2351;50.812;12.872;2022-12-07T13:54:47;1.97;;;1.40;;
4674;SDS011;2351;50.812;12.872;2022-12-07T13:57:20;2.50;;;1.63;;
4674;SDS011;2351;50.812;12.872;2022-12-07T13:59:53;3.67;;;1.50;;
4674;SDS011;2351;50.812;12.872;2022-12-07T14:02:25;3.53;;;1.50;;
4674;SDS011;2351;50.812;12.872;2022-12-07T14:05:07;6.53;;;2.00;;
4674;SDS011;2351;50.812;12.872;2022-12-07T14:07:48;2.00;;;1.60;;
4674;SDS011;2351;50.812;12.872;2022-12-07T14:10:25;3.13;;;1.70;;
4674;SDS011;2351;50.812;12.872;2022-12-07T14:12:58;2.23;;;1.73;;
4674;SDS011;2351;50.812;12.872;2022-12-07T14:15:32;1.80;;;1.67;;
4674;SDS011;2351;50.812;12.872;2022-12-07T14:21:05;2.73;;;1.50;;
4674;SDS011;2351;50.812;12.872;2022-12-07T14:23:45;3.30;;;1.53;;
4674;SDS011;2351;50.812;12.872;2022-12-07T14:26:33;2.83;;;1.50;;
4674;SDS011;2351;50.812;12.872;2022-12-07T14:29:21;2.10;;;1.23;;
4674;SDS011;2351;50.812;12.872;2022-12-07T14:32:12;2.50;;;1.20;;
4674;SDS011;2351;50.812;12.872;2022-12-07T14:34:56;4.90;;;1.60;;
4674;SDS011;2351;50.812;12.872;2022-12-07T14:37:32;2.57;;;1.03;;
4674;SDS011;2351;50.812;12.872;2022-12-07T14:40:04;8.43;;;2.13;;
4674;SDS011;2351;50.812;12.872;2022-12-07T14:42:36;2.90;;;1.33;;
4674;SDS011;2351;50.812;12.872;2022-12-07T14:45:12;5.07;;;2.20;;
4674;SDS011;2351;50.812;12.872;2022-12-07T14:47:46;1.70;;;1.20;;
4674;SDS011;2351;50.812;12.872;2022-12-07T14:50:18;1.33;;;1.23;;
4674;SDS011;2351;50.812;12.872;2022-12-07T14:52:54;2.03;;;1.07;;
4674;SDS011;2351;50.812;12.872;2022-12-07T14:55:28;3.53;;;1.20;;
4674;SDS011;2351;50.812;12.872;2022-12-07T14:58:01;4.90;;;1.60;;
4674;SDS011;2351;50.812;12.872;2022-12-07T15:00:33;4.73;;;1.60;;
4674;SDS011;2351;50.812;12.872;2022-12-07T15:03:05;2.67;;;1.37;;
4674;SDS011;2351;50.812;12.872;2022-12-07T15:05:37;1.50;;;1.17;;
4674;SDS011;2351;50.812;12.872;2022-12-07T15:08:10;3.40;;;1.60;;
4674;SDS011;2351;50.812;12.872;2022-12-07T15:10:43;3.80;;;1.30;;
4674;SDS011;2351;50.812;12.872;2022-12-07T15:13:15;1.60;;;1.40;;
4674;SDS011;2351;50.812;12.872;2022-12-07T15:16:05;1.70;;;1.60;;
4674;SDS011;2351;50.812;12.872;2022-12-07T15:18:39;1.63;;;1.00;;
4674;SDS011;2351;50.812;12.872;2022-12-07T15:21:11;2.70;;;0.90;;
4674;SDS011;2351;50.812;12.872;2022-12-07T15:23:47;1.27;;;1.17;;
4674;SDS011;2351;50.812;12.872;2022-12-07T15:26:18;3.87;;;1.40;;
4674;SDS011;2351;50.812;12.872;2022-12-07T15:28:52;1.10;;;1.03;;
4674;SDS011;2351;50.812;12.872;2022-12-07T15:31:24;2.20;;;1.50;;
4674;SDS011;2351;50.812;12.872;2022-12-07T15:33:56;4.83;;;1.70;;
4674;SDS011;2351;50.812;12.872;2022-12-07T15:36:28;5.10;;;1.80;;
4674;SDS011;2351;50.812;12.872;2022-12-07T15:39:03;2.47;;;1.97;;
4674;SDS011;2351;50.812;12.872;2022-12-07T15:41:35;1.50;;;1.27;;
4674;SDS011;2351;50.812;12.872;2022-12-07T15:44:08;3.07;;;1.67;;
4674;SDS011;2351;50.812;12.872;2022-12-07T15:46:58;2.57;;;1.87;;
4674;SDS011;2351;50.812;12.872;2022-12-07T15:49:30;3.00;;;1.40;;
4674;SDS011;2351;50.812;12.872;2022-12-07T15:52:02;2.43;;;1.43;;
4674;SDS011;2351;50.812;12.872;2022-12-07T15:54:35;2.87;;;1.37;;
4674;SDS011;2351;50.812;12.872;2022-12-07T15:57:07;1.53;;;0.80;;
4674;SDS011;2351;50.812;12.872;2022-12-07T15:59:39;1.77;;;1.63;;
4674;SDS011;2351;50.812;12.872;2022-12-07T16:02:10;1.67;;;1.50;;
4674;SDS011;2351;50.812;12.872;2022-12-07T16:04:42;2.80;;;1.50;;
4674;SDS011;2351;50.812;12.872;2022-12-07T16:07:15;4.60;;;1.30;;
4674;SDS011;2351;50.812;12.872;2022-12-07T16:09:49;1.40;;;0.97;;
4674;SDS011;2351;50.812;12.872;2022-12-07T16:12:21;2.27;;;1.50;;
4674;SDS011;2351;50.812;12.872;2022-12-07T16:14:52;2.37;;;1.87;;
4674;SDS011;2351;50.812;12.872;2022-12-07T16:17:24;1.03;;;0.90;;